Time;durP1;ratioP1;P1;durP2;ratioP2;P2;SDS_P1;SDS_P2;PMS_P1;PMS_P2;Temp;Humidity;BMP_temperature;BMP_pressure;BME280_temperature;BME280_humidity;BME280_pressure;Samples;Min_cycle;Max_cycle;Signal;HPM_P1;HPM_P2
2024/01/29 00:01:34;;;;;;;5.57;3.20;;;;;;;;;;6081012;23;20405;-85
2024/01/29 00:04:00;;;;;;;5.53;3.50;;;;;;;;;;6077794;23;20389;-83
2024/01/29 00:06:32;;;;;;;4.60;3.30;;;;;;;;;;6082050;23;20386;-83
2024/01/29 00:08:58;;;;;;;3.87;3.57;;;;;;;;;;6115079;23;20394;-84
2024/01/29 00:11:27;;;;;;;3.73;3.27;;;;;;;;;;6192189;23;20441;-83
2024/01/29 00:14:00;;;;;;;2.97;2.77;;;;;;;;;;6192165;23;20395;-85
2024/01/29 00:16:36;;;;;;;3.70;2.63;;;;;;;;;;6190764;23;20425;-83
2024/01/29 00:19:18;;;;;;;2.80;2.60;;;;;;;;;;6163362;23;20380;-84
2024/01/29 00:21:56;;;;;;;2.77;2.57;;;;;;;;;;6162287;23;20384;-84
2024/01/29 00:24:25;;;;;;;4.47;2.60;;;;;;;;;;6165633;23;20391;-83
2024/01/29 00:26:53;;;;;;;4.20;3.17;;;;;;;;;;6160617;23;20438;-84
2024/01/29 00:29:19;;;;;;;3.90;3.47;;;;;;;;;;6137215;23;21056;-86
2024/01/29 00:31:46;;;;;;;3.07;2.83;;;;;;;;;;6135241;23;20459;-85
2024/01/29 00:34:46;;;;;;;6.33;3.83;;;;;;;;;;6139955;23;20373;-84
2024/01/29 00:37:18;;;;;;;3.27;2.97;;;;;;;;;;6161420;23;20412;-82
2024/01/29 00:39:44;;;;;;;5.27;2.87;;;;;;;;;;6140995;23;20392;-83
2024/01/29 00:42:10;;;;;;;4.87;2.60;;;;;;;;;;6135061;23;20384;-85
2024/01/29 00:44:36;;;;;;;5.13;2.50;;;;;;;;;;6162795;23;20446;-84
2024/01/29 00:47:02;;;;;;;5.20;2.83;;;;;;;;;;6135888;23;20415;-83
2024/01/29 00:49:31;;;;;;;2.87;2.67;;;;;;;;;;6166783;23;20431;-84
2024/01/29 00:51:57;;;;;;;6.53;2.57;;;;;;;;;;6160892;23;20427;-84
2024/01/29 00:54:23;;;;;;;3.10;2.60;;;;;;;;;;6161005;23;21111;-84
2024/01/29 00:56:49;;;;;;;5.20;3.30;;;;;;;;;;6162413;23;20820;-83
2024/01/29 00:59:15;;;;;;;2.93;2.47;;;;;;;;;;6195462;23;20384;-83
2024/01/29 01:01:41;;;;;;;3.83;3.47;;;;;;;;;;6190948;23;20494;-84
2024/01/29 01:04:07;;;;;;;2.50;2.30;;;;;;;;;;6192718;23;20850;-83
2024/01/29 01:06:33;;;;;;;5.30;3.87;;;;;;;;;;6217424;23;20386;-84
2024/01/29 01:08:59;;;;;;;4.53;3.60;;;;;;;;;;6192674;23;20375;-83
2024/01/29 01:11:25;;;;;;;4.87;3.60;;;;;;;;;;6191230;23;20419;-83
2024/01/29 01:13:53;;;;;;;3.93;3.40;;;;;;;;;;6192241;23;20370;-84
2024/01/29 01:16:19;;;;;;;3.97;3.20;;;;;;;;;;6161094;23;20390;-84
2024/01/29 01:18:45;;;;;;;4.80;3.33;;;;;;;;;;6135961;23;21074;-83
2024/01/29 01:21:11;;;;;;;3.13;2.80;;;;;;;;;;6135351;23;20363;-82
2024/01/29 01:23:38;;;;;;;3.17;2.87;;;;;;;;;;6137012;23;20388;-83
2024/01/29 01:26:06;;;;;;;4.50;3.13;;;;;;;;;;6139544;23;20384;-84
2024/01/29 01:28:32;;;;;;;2.43;2.23;;;;;;;;;;6135324;23;20376;-86
2024/01/29 01:30:58;;;;;;;3.30;3.00;;;;;;;;;;6136922;23;20434;-83
2024/01/29 01:33:25;;;;;;;3.33;2.80;;;;;;;;;;6159702;23;20392;-85
2024/01/29 01:35:51;;;;;;;4.93;3.23;;;;;;;;;;6137088;23;20372;-84
2024/01/29 01:38:19;;;;;;;4.60;2.87;;;;;;;;;;6136473;23;20388;-84
2024/01/29 01:40:45;;;;;;;5.50;3.70;;;;;;;;;;6136740;23;20795;-84
2024/01/29 01:43:15;;;;;;;2.90;2.60;;;;;;;;;;6136544;23;20372;-84
2024/01/29 01:45:41;;;;;;;5.10;3.30;;;;;;;;;;6136291;23;20403;-84
2024/01/29 01:48:07;;;;;;;5.10;2.90;;;;;;;;;;6161650;23;20371;-84
2024/01/29 01:50:33;;;;;;;2.97;2.67;;;;;;;;;;6191106;23;20788;-84
2024/01/29 01:52:59;;;;;;;2.60;2.40;;;;;;;;;;6216053;23;20387;-83
2024/01/29 01:55:25;;;;;;;3.17;2.87;;;;;;;;;;6220360;23;20370;-84
2024/01/29 01:57:51;;;;;;;3.07;2.77;;;;;;;;;;6191542;23;20383;-85
2024/01/29 02:00:17;;;;;;;4.30;3.00;;;;;;;;;;6191353;23;20505;-83
2024/01/29 02:02:43;;;;;;;3.63;3.00;;;;;;;;;;6191429;23;20889;-83
2024/01/29 02:05:09;;;;;;;4.47;3.90;;;;;;;;;;6193325;23;20378;-84
2024/01/29 02:07:35;;;;;;;5.60;2.97;;;;;;;;;;6191470;23;20909;-84
2024/01/29 02:10:01;;;;;;;5.00;3.30;;;;;;;;;;6191390;23;20379;-84
2024/01/29 02:12:27;;;;;;;4.23;3.20;;;;;;;;;;6191592;23;20367;-84
2024/01/29 02:14:53;;;;;;;3.53;2.60;;;;;;;;;;6192052;23;20375;-84
2024/01/29 02:17:19;;;;;;;2.70;2.50;;;;;;;;;;6191001;23;20374;-84
2024/01/29 02:19:45;;;;;;;5.53;2.80;;;;;;;;;;6191465;23;20451;-84
2024/01/29 02:22:11;;;;;;;6.07;2.70;;;;;;;;;;6189560;23;20375;-83
2024/01/29 02:24:37;;;;;;;3.73;2.20;;;;;;;;;;6191557;23;20674;-84
2024/01/29 02:27:03;;;;;;;3.20;2.13;;;;;;;;;;6193103;23;20390;-84
2024/01/29 02:29:30;;;;;;;2.63;2.17;;;;;;;;;;6192899;23;20379;-84
2024/01/29 02:31:56;;;;;;;2.37;2.10;;;;;;;;;;6220083;23;20446;-83
2024/01/29 02:34:22;;;;;;;2.13;1.80;;;;;;;;;;6193357;23;20410;-83
2024/01/29 02:36:48;;;;;;;2.50;2.30;;;;;;;;;;6194529;23;20391;-83
2024/01/29 02:39:14;;;;;;;2.70;2.33;;;;;;;;;;6216399;23;20833;-84
2024/01/29 02:41:40;;;;;;;2.20;2.10;;;;;;;;;;6195911;23;20391;-84
2024/01/29 02:44:06;;;;;;;3.17;2.03;;;;;;;;;;6192086;23;20387;-84
2024/01/29 02:46:32;;;;;;;2.33;2.00;;;;;;;;;;6192450;23;20411;-83
2024/01/29 02:48:58;;;;;;;2.67;1.90;;;;;;;;;;6191987;23;20419;-85
2024/01/29 02:51:24;;;;;;;2.67;1.80;;;;;;;;;;6193797;23;20422;-83
2024/01/29 02:53:50;;;;;;;4.77;2.73;;;;;;;;;;6194056;23;20862;-83
2024/01/29 02:56:16;;;;;;;2.40;1.80;;;;;;;;;;6194688;23;20374;-84
2024/01/29 02:58:41;;;;;;;3.40;3.13;;;;;;;;;;6194183;23;20359;-84
2024/01/29 03:01:09;;;;;;;2.37;1.97;;;;;;;;;;6220910;23;20363;-83
2024/01/29 03:03:41;;;;;;;2.00;1.90;;;;;;;;;;6186502;23;20380;-84
2024/01/29 03:06:07;;;;;;;2.87;2.13;;;;;;;;;;6138907;23;20395;-84
2024/01/29 03:08:33;;;;;;;2.63;2.43;;;;;;;;;;6133026;23;20822;-83
2024/01/29 03:10:59;;;;;;;4.40;2.40;;;;;;;;;;6138796;23;20558;-82
2024/01/29 03:13:25;;;;;;;2.23;2.03;;;;;;;;;;6138264;23;20871;-83
2024/01/29 03:15:51;;;;;;;4.00;2.67;;;;;;;;;;6138369;23;20379;-83
2024/01/29 03:18:17;;;;;;;1.63;1.50;;;;;;;;;;6162250;23;20455;-83
2024/01/29 03:20:43;;;;;;;2.10;1.93;;;;;;;;;;6139521;23;20375;-83
2024/01/29 03:23:10;;;;;;;2.40;2.00;;;;;;;;;;6137856;23;20383;-83
2024/01/29 03:25:36;;;;;;;4.03;2.60;;;;;;;;;;6164679;23;20372;-83
2024/01/29 03:28:02;;;;;;;2.33;2.13;;;;;;;;;;6137225;23;20706;-83
2024/01/29 03:30:28;;;;;;;5.33;2.53;;;;;;;;;;6137493;23;21162;-83
2024/01/29 03:32:56;;;;;;;4.20;1.97;;;;;;;;;;6137324;23;20403;-83
2024/01/29 03:35:22;;;;;;;2.03;1.70;;;;;;;;;;6165422;23;20417;-83
2024/01/29 03:37:48;;;;;;;2.13;1.60;;;;;;;;;;6219183;23;20382;-84
2024/01/29 03:40:14;;;;;;;5.40;2.60;;;;;;;;;;6191985;23;20463;-83
2024/01/29 03:42:40;;;;;;;1.80;1.70;;;;;;;;;;6194818;23;20457;-83
2024/01/29 03:45:06;;;;;;;2.83;2.63;;;;;;;;;;6193272;23;20450;-83
2024/01/29 03:47:32;;;;;;;3.33;2.13;;;;;;;;;;6195757;23;20726;-84
2024/01/29 03:49:59;;;;;;;4.30;2.10;;;;;;;;;;6191734;23;20383;-83
2024/01/29 03:52:25;;;;;;;3.70;2.27;;;;;;;;;;6217666;23;20457;-85
2024/01/29 03:54:51;;;;;;;2.00;1.80;;;;;;;;;;6191545;23;20455;-84
2024/01/29 03:57:17;;;;;;;5.20;2.30;;;;;;;;;;6195626;23;20383;-84
2024/01/29 03:59:43;;;;;;;1.90;1.70;;;;;;;;;;6217443;23;20371;-84
2024/01/29 04:02:09;;;;;;;3.13;2.83;;;;;;;;;;6191995;23;20865;-83
2024/01/29 04:04:38;;;;;;;3.37;2.30;;;;;;;;;;6191718;23;20465;-83
2024/01/29 04:07:05;;;;;;;3.83;2.50;;;;;;;;;;6196963;23;20394;-84
2024/01/29 04:09:31;;;;;;;2.00;1.83;;;;;;;;;;6191593;23;20886;-83
2024/01/29 04:11:57;;;;;;;2.47;2.30;;;;;;;;;;6191769;23;20482;-82
2024/01/29 04:14:23;;;;;;;2.20;1.90;;;;;;;;;;6215658;23;20410;-84
2024/01/29 04:16:49;;;;;;;2.67;2.17;;;;;;;;;;6193892;23;20378;-84
2024/01/29 04:19:15;;;;;;;1.60;1.50;;;;;;;;;;6220247;23;20387;-83
2024/01/29 04:21:44;;;;;;;2.87;2.00;;;;;;;;;;6192606;23;20442;-84
2024/01/29 04:24:15;;;;;;;10.67;2.00;;;;;;;;;;6196556;23;20847;-83
2024/01/29 04:26:44;;;;;;;2.23;2.03;;;;;;;;;;6192261;23;20914;-84
2024/01/29 04:29:10;;;;;;;2.80;1.73;;;;;;;;;;6196386;23;20461;-83
2024/01/29 04:31:36;;;;;;;2.00;1.53;;;;;;;;;;6193453;23;20438;-84
2024/01/29 04:34:02;;;;;;;2.03;1.83;;;;;;;;;;6195896;23;20374;-83
2024/01/29 04:36:28;;;;;;;2.90;2.17;;;;;;;;;;6196381;23;20397;-84
2024/01/29 04:38:54;;;;;;;3.00;1.53;;;;;;;;;;6193872;23;20419;-85
2024/01/29 04:41:20;;;;;;;3.20;2.30;;;;;;;;;;6197918;23;20375;-83
2024/01/29 04:43:46;;;;;;;4.03;2.07;;;;;;;;;;6190202;23;20401;-83
2024/01/29 04:46:16;;;;;;;2.70;2.13;;;;;;;;;;6194542;23;20439;-84
2024/01/29 04:48:42;;;;;;;2.83;2.40;;;;;;;;;;6192570;23;20410;-83
2024/01/29 04:51:08;;;;;;;3.60;2.17;;;;;;;;;;6194303;23;20462;-83
2024/01/29 04:53:35;;;;;;;3.33;2.40;;;;;;;;;;6218013;23;20736;-84
2024/01/29 04:56:02;;;;;;;3.20;2.90;;;;;;;;;;6194194;23;20386;-83
2024/01/29 04:58:29;;;;;;;2.50;2.33;;;;;;;;;;6191444;23;20468;-83
2024/01/29 05:00:55;;;;;;;3.80;2.30;;;;;;;;;;6195226;23;20720;-84
2024/01/29 05:03:20;;;;;;;3.00;2.73;;;;;;;;;;6193019;23;20383;-83
2024/01/29 05:05:46;;;;;;;8.73;3.40;;;;;;;;;;6220478;23;20374;-83
2024/01/29 05:08:15;;;;;;;7.20;1.90;;;;;;;;;;6219041;23;20682;-84
2024/01/29 05:10:41;;;;;;;3.60;2.30;;;;;;;;;;6193308;23;20422;-84
2024/01/29 05:13:08;;;;;;;6.33;3.10;;;;;;;;;;6189588;23;20921;-83
2024/01/29 05:15:34;;;;;;;3.50;2.50;;;;;;;;;;6191406;23;20379;-83
2024/01/29 05:18:01;;;;;;;3.40;2.57;;;;;;;;;;6189965;23;20662;-84
2024/01/29 05:20:27;;;;;;;2.60;1.60;;;;;;;;;;6190328;23;20398;-84
2024/01/29 05:22:53;;;;;;;3.63;2.20;;;;;;;;;;6215785;23;20363;-84
2024/01/29 05:25:19;;;;;;;2.67;2.00;;;;;;;;;;6216832;23;20410;-83
2024/01/29 05:27:45;;;;;;;2.20;2.00;;;;;;;;;;6191416;23;20409;-84
2024/01/29 05:30:14;;;;;;;3.83;2.13;;;;;;;;;;6192025;23;20405;-84
2024/01/29 05:32:40;;;;;;;2.20;2.00;;;;;;;;;;6190550;23;20923;-83
2024/01/29 05:35:06;;;;;;;2.80;2.37;;;;;;;;;;6218265;23;20371;-85
2024/01/29 05:37:34;;;;;;;2.87;2.07;;;;;;;;;;6192275;23;20419;-84
2024/01/29 05:40:00;;;;;;;1.90;1.80;;;;;;;;;;6218247;23;20368;-84
2024/01/29 05:42:26;;;;;;;3.37;3.07;;;;;;;;;;6219224;23;20427;-84
2024/01/29 05:44:52;;;;;;;2.67;2.47;;;;;;;;;;6219717;23;20439;-84
2024/01/29 05:47:18;;;;;;;6.93;2.20;;;;;;;;;;6198212;23;20849;-84
2024/01/29 05:49:44;;;;;;;2.13;1.73;;;;;;;;;;6192549;23;20387;-84
2024/01/29 05:52:10;;;;;;;3.03;2.47;;;;;;;;;;6192654;23;20946;-84
2024/01/29 05:54:36;;;;;;;3.07;2.77;;;;;;;;;;6191649;23;20457;-84
2024/01/29 05:57:02;;;;;;;2.20;2.00;;;;;;;;;;6193127;23;20850;-83
2024/01/29 05:59:28;;;;;;;3.80;2.80;;;;;;;;;;6190072;23;20398;-84
2024/01/29 06:01:54;;;;;;;3.80;2.80;;;;;;;;;;6218176;23;20367;-84
2024/01/29 06:04:20;;;;;;;7.00;4.17;;;;;;;;;;6192183;23;20383;-84
2024/01/29 06:06:46;;;;;;;3.33;2.83;;;;;;;;;;6194274;23;20907;-84
2024/01/29 06:09:13;;;;;;;5.37;3.03;;;;;;;;;;6191793;23;20385;-85
2024/01/29 06:11:39;;;;;;;4.80;2.70;;;;;;;;;;6217396;23;20418;-84
2024/01/29 06:14:06;;;;;;;4.50;3.10;;;;;;;;;;6215737;23;20446;-84
2024/01/29 06:16:32;;;;;;;3.30;3.00;;;;;;;;;;6194694;23;20425;-85
2024/01/29 06:18:58;;;;;;;3.20;2.90;;;;;;;;;;6191279;23;20430;-85
2024/01/29 06:21:24;;;;;;;3.77;2.90;;;;;;;;;;6192183;23;20383;-85
2024/01/29 06:23:50;;;;;;;3.40;3.10;;;;;;;;;;6194129;23;20394;-84
2024/01/29 06:26:16;;;;;;;2.10;2.00;;;;;;;;;;6197394;23;20375;-86
2024/01/29 06:28:42;;;;;;;6.13;4.30;;;;;;;;;;6196272;23;20889;-84
2024/01/29 06:31:09;;;;;;;5.10;3.47;;;;;;;;;;6197252;23;20454;-87
2024/01/29 06:33:38;;;;;;;6.00;3.50;;;;;;;;;;6197252;23;20383;-85
2024/01/29 06:36:06;;;;;;;4.10;2.90;;;;;;;;;;6196238;23;20383;-84
2024/01/29 06:38:32;;;;;;;4.63;3.50;;;;;;;;;;6220164;23;20386;-86
2024/01/29 06:40:59;;;;;;;4.80;3.90;;;;;;;;;;6192200;23;20379;-87
2024/01/29 06:43:25;;;;;;;8.90;5.50;;;;;;;;;;6192504;23;20379;-84
2024/01/29 06:45:54;;;;;;;8.93;5.50;;;;;;;;;;6193276;23;20449;-86
2024/01/29 06:48:20;;;;;;;7.90;3.80;;;;;;;;;;6218840;23;20374;-86
2024/01/29 06:50:46;;;;;;;4.77;4.30;;;;;;;;;;6194188;23;20431;-88
2024/01/29 06:53:12;;;;;;;14.97;5.93;;;;;;;;;;6223077;23;20363;-87
2024/01/29 06:55:41;;;;;;;10.43;4.93;;;;;;;;;;6220873;23;20377;-89
2024/01/29 06:58:07;;;;;;;11.10;5.93;;;;;;;;;;6221298;23;20386;-87
2024/01/29 07:00:33;;;;;;;12.10;3.70;;;;;;;;;;6195346;23;20383;-87
2024/01/29 07:03:00;;;;;;;11.07;4.67;;;;;;;;;;6223987;23;20461;-88
2024/01/29 07:05:26;;;;;;;8.50;4.77;;;;;;;;;;6197312;23;20383;-88
2024/01/29 07:07:53;;;;;;;14.27;7.70;;;;;;;;;;6194277;23;20393;-87
2024/01/29 07:10:19;;;;;;;7.57;4.07;;;;;;;;;;6196733;23;20427;-86
2024/01/29 07:12:45;;;;;;;8.07;5.43;;;;;;;;;;6196313;23;20414;-86
2024/01/29 07:15:14;;;;;;;8.70;4.40;;;;;;;;;;6197891;23;20385;-87
2024/01/29 07:17:40;;;;;;;10.10;5.03;;;;;;;;;;6222118;23;20378;-88
2024/01/29 07:20:08;;;;;;;12.37;5.40;;;;;;;;;;6195084;23;20375;-86
2024/01/29 07:22:38;;;;;;;12.53;4.63;;;;;;;;;;6194768;23;20466;-87
2024/01/29 07:25:05;;;;;;;7.10;4.77;;;;;;;;;;6197176;23;20403;-88
2024/01/29 07:27:35;;;;;;;6.63;3.17;;;;;;;;;;6195126;23;20862;-87
2024/01/29 07:30:01;;;;;;;11.43;4.37;;;;;;;;;;6221973;23;20433;-87
2024/01/29 07:32:31;;;;;;;8.20;4.17;;;;;;;;;;6220495;23;20377;-86
2024/01/29 07:34:58;;;;;;;7.93;4.50;;;;;;;;;;6197696;23;20363;-87
2024/01/29 07:37:24;;;;;;;5.27;3.33;;;;;;;;;;6191820;23;21004;-86
2024/01/29 07:39:51;;;;;;;5.80;3.93;;;;;;;;;;6194493;23;20386;-88
2024/01/29 07:42:19;;;;;;;9.60;5.23;;;;;;;;;;6191820;23;20481;-87
2024/01/29 07:44:46;;;;;;;8.33;3.17;;;;;;;;;;6194817;23;20441;-87
2024/01/29 07:47:12;;;;;;;4.00;3.27;;;;;;;;;;6193988;23;20445;-88
2024/01/29 07:49:38;;;;;;;6.00;3.53;;;;;;;;;;6197959;23;20442;-87
2024/01/29 07:52:04;;;;;;;6.67;3.90;;;;;;;;;;6192803;23;20433;-86
2024/01/29 07:54:30;;;;;;;5.47;3.47;;;;;;;;;;6193442;23;20390;-86
2024/01/29 07:56:56;;;;;;;4.73;3.30;;;;;;;;;;6192220;23;20375;-88
2024/01/29 07:59:23;;;;;;;10.17;7.30;;;;;;;;;;6197158;23;20375;-88
2024/01/29 08:01:49;;;;;;;6.37;3.53;;;;;;;;;;6191931;23;20390;-86
2024/01/29 08:04:15;;;;;;;6.10;4.77;;;;;;;;;;6198029;23;20763;-86
2024/01/29 08:06:41;;;;;;;7.27;5.40;;;;;;;;;;6194253;23;20417;-87
2024/01/29 08:09:07;;;;;;;5.60;4.40;;;;;;;;;;6194982;23;20441;-87
2024/01/29 08:11:33;;;;;;;6.33;4.67;;;;;;;;;;6193475;23;20426;-89
2024/01/29 08:13:59;;;;;;;6.43;5.77;;;;;;;;;;6194591;23;20379;-86
2024/01/29 08:16:25;;;;;;;10.50;3.47;;;;;;;;;;6194974;23;20383;-88
2024/01/29 08:18:52;;;;;;;7.93;4.37;;;;;;;;;;6192687;23;20842;-86
2024/01/29 08:21:18;;;;;;;6.53;4.03;;;;;;;;;;6191359;23;20438;-86
2024/01/29 08:23:44;;;;;;;6.57;3.80;;;;;;;;;;6190902;23;20387;-85
2024/01/29 08:26:10;;;;;;;6.50;5.10;;;;;;;;;;6193002;23;20402;-86
2024/01/29 08:28:37;;;;;;;8.50;5.47;;;;;;;;;;6191459;23;20406;-86
2024/01/29 08:31:05;;;;;;;8.00;4.17;;;;;;;;;;6195938;23;20496;-85
2024/01/29 08:33:31;;;;;;;9.00;4.87;;;;;;;;;;6193386;23;20391;-85
2024/01/29 08:35:57;;;;;;;4.83;3.23;;;;;;;;;;6216598;23;20907;-85
2024/01/29 08:38:23;;;;;;;7.27;4.20;;;;;;;;;;6191476;23;20426;-84
2024/01/29 08:40:50;;;;;;;8.20;4.47;;;;;;;;;;6194472;23;20379;-85
2024/01/29 08:43:17;;;;;;;6.23;3.77;;;;;;;;;;6191355;23;20760;-85
2024/01/29 08:45:45;;;;;;;5.13;3.17;;;;;;;;;;6191947;23;20387;-87
2024/01/29 08:48:12;;;;;;;2.73;2.53;;;;;;;;;;6190458;23;20394;-87
2024/01/29 08:50:38;;;;;;;3.93;3.27;;;;;;;;;;6214196;23;20510;-85
2024/01/29 08:53:04;;;;;;;5.03;3.40;;;;;;;;;;6191069;23;20379;-86
2024/01/29 08:55:34;;;;;;;142.60;26.00;;;;;;;;;;6192672;23;20387;-86
2024/01/29 08:58:00;;;;;;;18.67;5.87;;;;;;;;;;6192961;23;20398;-85
2024/01/29 09:00:26;;;;;;;4.30;3.87;;;;;;;;;;6195266;23;20367;-84
2024/01/29 09:02:52;;;;;;;4.67;4.17;;;;;;;;;;6191705;23;20379;-85
2024/01/29 09:05:24;;;;;;;5.60;3.50;;;;;;;;;;6195287;23;20375;-83
2024/01/29 09:07:50;;;;;;;4.67;3.70;;;;;;;;;;6191699;23;20382;-84
2024/01/29 09:10:31;;;;;;;4.40;4.00;;;;;;;;;;6179271;23;20455;-86
2024/01/29 09:12:57;;;;;;;7.97;6.20;;;;;;;;;;6194082;23;20390;-91
2024/01/29 09:15:28;;;;;;;6.37;4.70;;;;;;;;;;6201929;23;20387;-91
2024/01/29 09:18:10;;;;;;;16.70;7.03;;;;;;;;;;6228582;23;20374;-92
2024/01/29 09:20:36;;;;;;;38.17;6.70;;;;;;;;;;6205700;23;20399;-92
2024/01/29 09:23:13;;;;;;;7.83;5.33;;;;;;;;;;6223126;23;20398;-96
2024/01/29 09:25:42;;;;;;;7.23;4.40;;;;;;;;;;6223846;23;20421;-94
2024/01/29 09:28:08;;;;;;;5.20;4.20;;;;;;;;;;6195814;23;20579;-93
2024/01/29 09:30:37;;;;;;;5.00;4.17;;;;;;;;;;6195787;23;20419;-95
2024/01/29 09:33:04;;;;;;;7.70;4.30;;;;;;;;;;6202239;23;20611;-96
2024/01/29 09:40:44;;;;;;;5.57;3.67;;;;;;;;;;6171352;22;20446;-95
2024/01/29 09:43:12;;;;;;;6.60;4.37;;;;;;;;;;6200304;23;20430;-94
2024/01/29 09:45:38;;;;;;;7.70;5.93;;;;;;;;;;6196952;23;20398;-92
2024/01/29 09:48:05;;;;;;;7.03;5.10;;;;;;;;;;6201151;23;20388;-90
2024/01/29 09:50:31;;;;;;;6.37;5.40;;;;;;;;;;6195728;23;20422;-92
2024/01/29 09:52:57;;;;;;;10.43;5.97;;;;;;;;;;6197025;23;20379;-90
2024/01/29 09:55:23;;;;;;;6.27;4.97;;;;;;;;;;6198724;23;20359;-94
2024/01/29 09:57:50;;;;;;;9.17;6.90;;;;;;;;;;6197034;23;20477;-91
2024/01/29 10:00:16;;;;;;;88.53;18.97;;;;;;;;;;6192801;23;20379;-90
2024/01/29 10:02:42;;;;;;;13.50;7.47;;;;;;;;;;6196681;23;20379;-93
2024/01/29 10:05:11;;;;;;;9.20;6.50;;;;;;;;;;6194639;23;20383;-92
2024/01/29 10:07:37;;;;;;;8.63;6.90;;;;;;;;;;6195515;23;20379;-92
2024/01/29 10:10:03;;;;;;;9.43;6.03;;;;;;;;;;6193892;23;20514;-92
2024/01/29 10:12:29;;;;;;;8.90;5.73;;;;;;;;;;6196309;23;20858;-90
2024/01/29 10:14:56;;;;;;;8.30;6.07;;;;;;;;;;6193198;23;20401;-91
2024/01/29 10:17:23;;;;;;;8.80;6.43;;;;;;;;;;6195825;23;20486;-92
2024/01/29 10:19:49;;;;;;;10.20;5.43;;;;;;;;;;6190969;23;20387;-92
2024/01/29 10:22:15;;;;;;;7.17;6.23;;;;;;;;;;6195596;23;20935;-91
2024/01/29 10:24:41;;;;;;;7.53;5.70;;;;;;;;;;6192686;23;20850;-92
2024/01/29 10:27:08;;;;;;;10.40;7.50;;;;;;;;;;6195845;23;20382;-92
2024/01/29 10:29:54;;;;;;;9.30;7.07;;;;;;;;;;6192932;23;20417;-91
2024/01/29 10:32:21;;;;;;;14.00;7.90;;;;;;;;;;6197288;23;20437;-93
2024/01/29 10:34:46;;;;;;;14.43;7.13;;;;;;;;;;6193566;23;20441;-89
2024/01/29 10:37:13;;;;;;;8.10;7.07;;;;;;;;;;6194380;23;20791;-93
2024/01/29 10:39:39;;;;;;;11.20;8.10;;;;;;;;;;6195233;23;20423;-92
2024/01/29 10:42:05;;;;;;;9.53;7.20;;;;;;;;;;6194931;23;20464;-92
2024/01/29 10:44:35;;;;;;;10.50;6.97;;;;;;;;;;6195775;23;20387;-90
2024/01/29 10:47:01;;;;;;;11.47;7.23;;;;;;;;;;6194368;23;20383;-88
2024/01/29 10:49:30;;;;;;;10.40;6.70;;;;;;;;;;6195768;23;20462;-93
2024/01/29 10:51:56;;;;;;;10.27;5.53;;;;;;;;;;6195012;23;20426;-91
2024/01/29 10:54:22;;;;;;;8.00;7.20;;;;;;;;;;6194627;23;20379;-90
2024/01/29 10:56:48;;;;;;;10.67;7.33;;;;;;;;;;6191911;23;20405;-90
2024/01/29 10:59:16;;;;;;;13.00;6.67;;;;;;;;;;6193594;22;20446;-92
2024/01/29 11:01:43;;;;;;;7.10;6.30;;;;;;;;;;6215320;23;20395;-88
2024/01/29 11:04:26;;;;;;;11.20;7.20;;;;;;;;;;6194208;23;20387;-88
2024/01/29 11:06:54;;;;;;;8.50;5.90;;;;;;;;;;6161778;23;20414;-87
2024/01/29 11:09:22;;;;;;;11.93;6.37;;;;;;;;;;6216363;23;20433;-85
2024/01/29 11:11:51;;;;;;;8.63;6.83;;;;;;;;;;6190135;23;20945;-88
2024/01/29 11:14:21;;;;;;;8.37;7.30;;;;;;;;;;6193160;23;20394;-88
2024/01/29 11:16:47;;;;;;;6.70;5.57;;;;;;;;;;6195197;23;20375;-87
2024/01/29 11:19:13;;;;;;;14.00;7.23;;;;;;;;;;6193178;23;20379;-88
2024/01/29 11:21:49;;;;;;;9.37;6.07;;;;;;;;;;6196949;23;20700;-88
2024/01/29 11:24:16;;;;;;;7.60;6.90;;;;;;;;;;6219181;23;20374;-88
2024/01/29 11:26:43;;;;;;;18.53;5.83;;;;;;;;;;6221452;23;20478;-88
2024/01/29 11:29:10;;;;;;;10.87;6.30;;;;;;;;;;6193466;23;20383;-87
2024/01/29 11:31:40;;;;;;;14.00;6.60;;;;;;;;;;6195752;23;20803;-88
2024/01/29 11:34:06;;;;;;;8.93;6.30;;;;;;;;;;6196300;23;20397;-87
2024/01/29 11:36:32;;;;;;;7.60;6.47;;;;;;;;;;6195875;23;20429;-90
2024/01/29 11:39:14;;;;;;;7.03;6.23;;;;;;;;;;6199557;23;20389;-86
2024/01/29 11:41:40;;;;;;;8.90;6.17;;;;;;;;;;6220530;23;20425;-92
2024/01/29 11:44:06;;;;;;;9.30;7.10;;;;;;;;;;6199026;23;20390;-88
2024/01/29 11:46:32;;;;;;;6.50;5.50;;;;;;;;;;6218472;23;20410;-87
2024/01/29 11:49:02;;;;;;;13.87;6.57;;;;;;;;;;6223403;23;20371;-88
2024/01/29 11:51:28;;;;;;;7.80;5.70;;;;;;;;;;6220655;23;20410;-87
2024/01/29 11:53:54;;;;;;;6.90;5.87;;;;;;;;;;6196057;23;20371;-88
2024/01/29 11:56:20;;;;;;;6.07;5.23;;;;;;;;;;6193408;23;20372;-89
2024/01/29 11:58:47;;;;;;;38.80;20.50;;;;;;;;;;6193450;23;20386;-87
2024/01/29 12:01:14;;;;;;;5.93;5.33;;;;;;;;;;6194015;23;20398;-85
2024/01/29 12:03:42;;;;;;;6.10;5.50;;;;;;;;;;6194425;23;20905;-88
2024/01/29 12:06:08;;;;;;;7.23;5.80;;;;;;;;;;6218789;23;20371;-87
2024/01/29 12:08:35;;;;;;;9.50;6.40;;;;;;;;;;6196065;23;20383;-88
2024/01/29 12:11:01;;;;;;;7.67;6.70;;;;;;;;;;6218984;23;20613;-88
2024/01/29 12:13:27;;;;;;;6.47;5.43;;;;;;;;;;6195786;23;20391;-88
2024/01/29 12:15:53;;;;;;;9.53;5.93;;;;;;;;;;6191977;23;20863;-87
2024/01/29 12:18:25;;;;;;;9.63;5.93;;;;;;;;;;6193784;23;20389;-90
2024/01/29 12:20:52;;;;;;;7.87;7.13;;;;;;;;;;6217485;23;20393;-87
2024/01/29 12:23:18;;;;;;;7.30;6.60;;;;;;;;;;6194343;23;20707;-87
2024/01/29 12:25:47;;;;;;;12.90;7.17;;;;;;;;;;6191310;23;20387;-87
2024/01/29 12:28:15;;;;;;;8.90;6.67;;;;;;;;;;6218606;23;20417;-87
2024/01/29 12:30:41;;;;;;;8.70;6.90;;;;;;;;;;6216523;23;20720;-87
2024/01/29 12:33:07;;;;;;;7.80;7.00;;;;;;;;;;6194063;23;20387;-91
2024/01/29 12:35:34;;;;;;;7.80;6.50;;;;;;;;;;6193443;23;20892;-88
2024/01/29 12:38:12;;;;;;;8.93;8.03;;;;;;;;;;6194776;23;20465;-86
2024/01/29 12:40:39;;;;;;;8.73;6.70;;;;;;;;;;6192318;23;20419;-88
2024/01/29 12:43:05;;;;;;;14.13;7.77;;;;;;;;;;6195968;23;20439;-87
2024/01/29 12:45:34;;;;;;;7.77;7.03;;;;;;;;;;6192843;23;20387;-88
2024/01/29 12:48:17;;;;;;;7.90;7.10;;;;;;;;;;6194390;23;20368;-87
2024/01/29 12:50:44;;;;;;;7.50;6.23;;;;;;;;;;6191773;23;20476;-86
2024/01/29 12:53:12;;;;;;;6.37;5.77;;;;;;;;;;6218542;23;20376;-86
2024/01/29 12:55:39;;;;;;;5.83;5.07;;;;;;;;;;6192297;23;20380;-87
2024/01/29 12:58:05;;;;;;;8.77;5.17;;;;;;;;;;6221049;23;20378;-86
2024/01/29 13:00:31;;;;;;;19.60;5.63;;;;;;;;;;6191891;23;20409;-86
2024/01/29 13:02:57;;;;;;;8.30;5.80;;;;;;;;;;6220641;23;20363;-87
2024/01/29 13:05:23;;;;;;;6.33;4.77;;;;;;;;;;6197371;23;20402;-88
2024/01/29 13:07:49;;;;;;;6.60;4.80;;;;;;;;;;6193926;23;20401;-87
2024/01/29 13:10:15;;;;;;;9.60;6.60;;;;;;;;;;6193111;23;20379;-88
2024/01/29 13:12:41;;;;;;;6.90;5.57;;;;;;;;;;6215835;23;20371;-90
2024/01/29 13:15:09;;;;;;;7.67;5.93;;;;;;;;;;6196181;23;20379;-87
2024/01/29 13:17:36;;;;;;;8.20;7.13;;;;;;;;;;6192312;23;20386;-87
2024/01/29 13:20:02;;;;;;;7.90;6.87;;;;;;;;;;6220441;23;20364;-88
2024/01/29 13:22:28;;;;;;;6.37;5.30;;;;;;;;;;6220372;23;20371;-89
2024/01/29 13:24:54;;;;;;;8.77;6.20;;;;;;;;;;6192848;23;20390;-88
2024/01/29 13:27:20;;;;;;;7.70;6.60;;;;;;;;;;6193013;23;20405;-88
2024/01/29 13:29:46;;;;;;;8.13;5.63;;;;;;;;;;6192596;23;20877;-88
2024/01/29 13:32:12;;;;;;;8.43;7.00;;;;;;;;;;6195742;23;20515;-87
2024/01/29 13:34:38;;;;;;;15.50;7.37;;;;;;;;;;6190955;23;20379;-87
2024/01/29 13:37:04;;;;;;;8.23;6.07;;;;;;;;;;6220215;23;20474;-87
2024/01/29 13:39:30;;;;;;;8.47;5.17;;;;;;;;;;6191485;22;20403;-89
2024/01/29 13:41:56;;;;;;;9.33;6.60;;;;;;;;;;6193367;23;20398;-87
2024/01/29 13:44:22;;;;;;;9.60;5.87;;;;;;;;;;6191305;23;20371;-87
2024/01/29 13:46:50;;;;;;;11.60;7.23;;;;;;;;;;6194294;23;20371;-87
2024/01/29 13:49:16;;;;;;;14.73;6.63;;;;;;;;;;6190428;23;20848;-87
2024/01/29 13:51:42;;;;;;;10.53;5.83;;;;;;;;;;6192574;23;20430;-87
2024/01/29 13:54:08;;;;;;;8.53;6.13;;;;;;;;;;6215943;23;20746;-88
2024/01/29 13:56:34;;;;;;;7.90;6.60;;;;;;;;;;6193500;23;20403;-87
2024/01/29 13:59:00;;;;;;;17.20;5.70;;;;;;;;;;6193545;23;20399;-88
2024/01/29 14:01:26;;;;;;;8.73;6.00;;;;;;;;;;6194063;23;20390;-87
2024/01/29 14:03:53;;;;;;;8.20;5.90;;;;;;;;;;6191249;23;20371;-87
2024/01/29 14:06:19;;;;;;;11.10;6.33;;;;;;;;;;6191971;23;20395;-87
2024/01/29 14:08:46;;;;;;;10.47;6.17;;;;;;;;;;6219819;23;20364;-86
2024/01/29 14:11:12;;;;;;;14.60;6.50;;;;;;;;;;6222829;23;20415;-88
2024/01/29 14:13:38;;;;;;;12.07;7.67;;;;;;;;;;6192820;23;20986;-91
2024/01/29 14:16:04;;;;;;;7.27;6.50;;;;;;;;;;6224958;23;20410;-91
2024/01/29 14:18:37;;;;;;;8.53;6.33;;;;;;;;;;6194805;23;20432;-91
2024/01/29 14:21:04;;;;;;;8.93;6.07;;;;;;;;;;6219997;23;20359;-90
2024/01/29 14:23:30;;;;;;;10.17;7.13;;;;;;;;;;6218395;23;20375;-90
2024/01/29 14:25:56;;;;;;;10.13;5.50;;;;;;;;;;6193992;23;20425;-90
2024/01/29 14:28:22;;;;;;;8.37;7.33;;;;;;;;;;6193987;23;20374;-90
2024/01/29 14:30:48;;;;;;;7.77;6.07;;;;;;;;;;6221134;22;20414;-90
2024/01/29 14:33:14;;;;;;;12.80;5.97;;;;;;;;;;6195946;23;20383;-88
2024/01/29 14:35:40;;;;;;;5.20;4.70;;;;;;;;;;6193417;23;21005;-88
2024/01/29 14:38:07;;;;;;;11.73;6.20;;;;;;;;;;6191390;23;20375;-89
2024/01/29 14:40:33;;;;;;;5.37;4.57;;;;;;;;;;6194279;23;20691;-92
2024/01/29 14:43:00;;;;;;;6.53;4.17;;;;;;;;;;6218011;23;20363;-88
2024/01/29 14:45:26;;;;;;;7.60;4.30;;;;;;;;;;6221307;23;20370;-90